sensor_id;sensor_type;location;lat;lon;timestamp;temperature;humidity
38514;DHT22;24282;48.400;10.808;2023-11-19T00:00:17;6.90;88.90
38514;DHT22;24282;48.400;10.808;2023-11-19T00:02:43;6.90;88.70
38514;DHT22;24282;48.400;10.808;2023-11-19T00:05:10;6.90;88.90
38514;DHT22;24282;48.400;10.808;2023-11-19T00:07:37;7.00;88.70
38514;DHT22;24282;48.400;10.808;2023-11-19T00:10:14;7.00;88.90
38514;DHT22;24282;48.400;10.808;2023-11-19T00:12:45;7.00;88.90
38514;DHT22;24282;48.400;10.808;2023-11-19T00:15:12;7.00;88.90
38514;DHT22;24282;48.400;10.808;2023-11-19T00:17:39;7.00;89.30
38514;DHT22;24282;48.400;10.808;2023-11-19T00:20:13;6.90;89.30
38514;DHT22;24282;48.400;10.808;2023-11-19T00:22:39;6.90;89.50
38514;DHT22;24282;48.400;10.808;2023-11-19T00:25:05;6.90;89.90
38514;DHT22;24282;48.400;10.808;2023-11-19T00:27:31;7.00;89.80
38514;DHT22;24282;48.400;10.808;2023-11-19T00:29:57;7.00;89.80
38514;DHT22;24282;48.400;10.808;2023-11-19T00:32:23;7.00;90.00
38514;DHT22;24282;48.400;10.808;2023-11-19T00:34:49;7.00;90.10
38514;DHT22;24282;48.400;10.808;2023-11-19T00:37:15;7.00;90.40
38514;DHT22;24282;48.400;10.808;2023-11-19T00:39:41;7.00;90.40
38514;DHT22;24282;48.400;10.808;2023-11-19T00:42:07;7.00;90.30
38514;DHT22;24282;48.400;10.808;2023-11-19T00:44:33;7.10;90.30
38514;DHT22;24282;48.400;10.808;2023-11-19T00:47:02;7.10;90.30
38514;DHT22;24282;48.400;10.808;2023-11-19T00:49:28;7.20;90.20
38514;DHT22;24282;48.400;10.808;2023-11-19T00:51:54;7.20;90.20
38514;DHT22;24282;48.400;10.808;2023-11-19T00:54:19;7.20;90.20
38514;DHT22;24282;48.400;10.808;2023-11-19T00:56:45;7.20;90.30
38514;DHT22;24282;48.400;10.808;2023-11-19T00:59:11;7.20;90.40
38514;DHT22;24282;48.400;10.808;2023-11-19T01:01:37;7.20;90.40
38514;DHT22;24282;48.400;10.808;2023-11-19T01:04:03;7.20;90.60
38514;DHT22;24282;48.400;10.808;2023-11-19T01:06:30;7.20;90.80
38514;DHT22;24282;48.400;10.808;2023-11-19T01:08:56;7.20;90.90
38514;DHT22;24282;48.400;10.808;2023-11-19T01:11:25;7.20;91.00
38514;DHT22;24282;48.400;10.808;2023-11-19T01:13:51;7.20;91.20
38514;DHT22;24282;48.400;10.808;2023-11-19T01:16:18;7.30;91.30
38514;DHT22;24282;48.400;10.808;2023-11-19T01:18:46;7.30;91.20
38514;DHT22;24282;48.400;10.808;2023-11-19T01:21:12;7.30;91.40
38514;DHT22;24282;48.400;10.808;2023-11-19T01:23:40;7.40;91.40
38514;DHT22;24282;48.400;10.808;2023-11-19T01:26:08;7.50;91.20
38514;DHT22;24282;48.400;10.808;2023-11-19T01:28:36;7.50;91.10
38514;DHT22;24282;48.400;10.808;2023-11-19T01:31:02;7.50;91.30
38514;DHT22;24282;48.400;10.808;2023-11-19T01:33:29;7.70;91.20
38514;DHT22;24282;48.400;10.808;2023-11-19T01:35:56;7.70;91.10
38514;DHT22;24282;48.400;10.808;2023-11-19T01:38:24;7.70;91.30
38514;DHT22;24282;48.400;10.808;2023-11-19T01:40:50;7.70;91.30
38514;DHT22;24282;48.400;10.808;2023-11-19T01:43:35;7.70;91.50
38514;DHT22;24282;48.400;10.808;2023-11-19T01:46:02;7.80;91.70
38514;DHT22;24282;48.400;10.808;2023-11-19T01:48:29;7.80;91.60
38514;DHT22;24282;48.400;10.808;2023-11-19T01:50:56;7.80;91.60
38514;DHT22;24282;48.400;10.808;2023-11-19T01:53:22;7.70;91.70
38514;DHT22;24282;48.400;10.808;2023-11-19T01:55:48;7.80;91.80
38514;DHT22;24282;48.400;10.808;2023-11-19T01:58:15;7.70;92.00
38514;DHT22;24282;48.400;10.808;2023-11-19T02:00:43;7.70;92.10
38514;DHT22;24282;48.400;10.808;2023-11-19T02:03:09;7.80;92.30
38514;DHT22;24282;48.400;10.808;2023-11-19T02:05:36;7.80;92.10
38514;DHT22;24282;48.400;10.808;2023-11-19T02:08:02;7.80;92.20
38514;DHT22;24282;48.400;10.808;2023-11-19T02:10:28;7.80;92.30
38514;DHT22;24282;48.400;10.808;2023-11-19T02:12:54;7.90;92.30
38514;DHT22;24282;48.400;10.808;2023-11-19T02:15:20;7.90;92.30
38514;DHT22;24282;48.400;10.808;2023-11-19T02:17:50;7.90;92.30
38514;DHT22;24282;48.400;10.808;2023-11-19T02:20:17;8.00;92.20
38514;DHT22;24282;48.400;10.808;2023-11-19T02:22:48;8.00;92.30
38514;DHT22;24282;48.400;10.808;2023-11-19T02:25:29;8.00;92.20
38514;DHT22;24282;48.400;10.808;2023-11-19T02:27:57;8.10;92.20
38514;DHT22;24282;48.400;10.808;2023-11-19T02:30:24;8.10;92.00
38514;DHT22;24282;48.400;10.808;2023-11-19T02:32:56;8.00;92.10
38514;DHT22;24282;48.400;10.808;2023-11-19T02:35:26;8.10;92.20
38514;DHT22;24282;48.400;10.808;2023-11-19T02:37:52;8.10;92.10
38514;DHT22;24282;48.400;10.808;2023-11-19T02:40:18;8.00;92.20
38514;DHT22;24282;48.400;10.808;2023-11-19T02:42:44;8.10;92.10
38514;DHT22;24282;48.400;10.808;2023-11-19T02:45:10;8.00;92.10
38514;DHT22;24282;48.400;10.808;2023-11-19T02:47:40;8.00;92.30
38514;DHT22;24282;48.400;10.808;2023-11-19T02:50:10;8.10;92.30
38514;DHT22;24282;48.400;10.808;2023-11-19T02:52:45;8.10;92.30
38514;DHT22;24282;48.400;10.808;2023-11-19T02:55:12;8.10;92.20
38514;DHT22;24282;48.400;10.808;2023-11-19T02:57:41;8.20;92.30
38514;DHT22;24282;48.400;10.808;2023-11-19T03:00:21;8.20;92.30
38514;DHT22;24282;48.400;10.808;2023-11-19T03:02:53;8.20;92.20
38514;DHT22;24282;48.400;10.808;2023-11-19T03:05:26;8.20;92.20
38514;DHT22;24282;48.400;10.808;2023-11-19T03:07:52;8.20;92.40
38514;DHT22;24282;48.400;10.808;2023-11-19T03:10:18;8.20;92.30
38514;DHT22;24282;48.400;10.808;2023-11-19T03:12:44;8.20;92.40
38514;DHT22;24282;48.400;10.808;2023-11-19T03:15:13;8.20;92.50
38514;DHT22;24282;48.400;10.808;2023-11-19T03:17:39;8.10;92.50
38514;DHT22;24282;48.400;10.808;2023-11-19T03:20:06;8.10;92.60
38514;DHT22;24282;48.400;10.808;2023-11-19T03:22:38;8.10;92.70
38514;DHT22;24282;48.400;10.808;2023-11-19T03:25:04;8.10;92.70
38514;DHT22;24282;48.400;10.808;2023-11-19T03:27:30;8.20;92.60
38514;DHT22;24282;48.400;10.808;2023-11-19T03:29:56;8.20;92.60
38514;DHT22;24282;48.400;10.808;2023-11-19T03:32:21;8.20;92.70
38514;DHT22;24282;48.400;10.808;2023-11-19T03:34:47;8.20;92.70
38514;DHT22;24282;48.400;10.808;2023-11-19T03:37:13;8.30;92.70
38514;DHT22;24282;48.400;10.808;2023-11-19T03:39:43;8.40;92.60
38514;DHT22;24282;48.400;10.808;2023-11-19T03:42:08;8.40;92.70
38514;DHT22;24282;48.400;10.808;2023-11-19T03:44:34;8.30;92.70
38514;DHT22;24282;48.400;10.808;2023-11-19T03:47:00;8.30;92.70
38514;DHT22;24282;48.400;10.808;2023-11-19T03:49:26;8.30;92.80
38514;DHT22;24282;48.400;10.808;2023-11-19T03:51:52;8.30;92.80
38514;DHT22;24282;48.400;10.808;2023-11-19T03:54:17;8.40;93.00
38514;DHT22;24282;48.400;10.808;2023-11-19T03:56:43;8.40;92.90
38514;DHT22;24282;48.400;10.808;2023-11-19T03:59:09;8.40;92.80
38514;DHT22;24282;48.400;10.808;2023-11-19T04:01:35;8.40;92.80
38514;DHT22;24282;48.400;10.808;2023-11-19T04:04:02;8.40;92.80
38514;DHT22;24282;48.400;10.808;2023-11-19T04:06:28;8.40;92.90
38514;DHT22;24282;48.400;10.808;2023-11-19T04:08:54;8.40;93.00
38514;DHT22;24282;48.400;10.808;2023-11-19T04:11:20;8.40;93.10
38514;DHT22;24282;48.400;10.808;2023-11-19T04:13:45;8.40;93.20
38514;DHT22;24282;48.400;10.808;2023-11-19T04:16:11;8.50;93.20
38514;DHT22;24282;48.400;10.808;2023-11-19T04:18:37;8.60;93.00
38514;DHT22;24282;48.400;10.808;2023-11-19T04:21:06;8.60;93.00
38514;DHT22;24282;48.400;10.808;2023-11-19T04:23:32;8.60;93.00
38514;DHT22;24282;48.400;10.808;2023-11-19T04:25:58;8.50;93.00
38514;DHT22;24282;48.400;10.808;2023-11-19T04:28:23;8.50;93.10
38514;DHT22;24282;48.400;10.808;2023-11-19T04:30:52;8.70;93.10
38514;DHT22;24282;48.400;10.808;2023-11-19T04:33:18;8.70;93.00
38514;DHT22;24282;48.400;10.808;2023-11-19T04:35:44;8.70;93.00
38514;DHT22;24282;48.400;10.808;2023-11-19T04:38:09;8.70;93.00
38514;DHT22;24282;48.400;10.808;2023-11-19T04:40:35;8.70;93.00
38514;DHT22;24282;48.400;10.808;2023-11-19T04:43:01;8.70;93.10
38514;DHT22;24282;48.400;10.808;2023-11-19T04:45:27;8.80;93.00
38514;DHT22;24282;48.400;10.808;2023-11-19T04:47:53;8.80;92.80
38514;DHT22;24282;48.400;10.808;2023-11-19T04:50:18;8.80;92.80
38514;DHT22;24282;48.400;10.808;2023-11-19T04:52:44;8.70;92.90
38514;DHT22;24282;48.400;10.808;2023-11-19T04:55:12;8.70;92.90
38514;DHT22;24282;48.400;10.808;2023-11-19T04:57:38;8.80;93.00
38514;DHT22;24282;48.400;10.808;2023-11-19T05:00:04;8.80;93.10
38514;DHT22;24282;48.400;10.808;2023-11-19T05:02:30;8.70;93.10
38514;DHT22;24282;48.400;10.808;2023-11-19T05:04:56;8.80;93.10
38514;DHT22;24282;48.400;10.808;2023-11-19T05:07:22;8.80;93.10
38514;DHT22;24282;48.400;10.808;2023-11-19T05:09:48;8.80;93.10
38514;DHT22;24282;48.400;10.808;2023-11-19T05:12:13;8.80;93.10
38514;DHT22;24282;48.400;10.808;2023-11-19T05:14:39;8.90;93.10
38514;DHT22;24282;48.400;10.808;2023-11-19T05:17:05;8.90;93.00
38514;DHT22;24282;48.400;10.808;2023-11-19T05:19:30;8.90;93.00
38514;DHT22;24282;48.400;10.808;2023-11-19T05:21:56;8.90;92.90
38514;DHT22;24282;48.400;10.808;2023-11-19T05:24:22;8.90;93.00
38514;DHT22;24282;48.400;10.808;2023-11-19T05:26:48;8.90;92.90
38514;DHT22;24282;48.400;10.808;2023-11-19T05:29:16;8.90;92.90
38514;DHT22;24282;48.400;10.808;2023-11-19T05:31:42;8.90;92.90
38514;DHT22;24282;48.400;10.808;2023-11-19T05:34:07;9.00;93.00
38514;DHT22;24282;48.400;10.808;2023-11-19T05:36:33;9.00;92.90
38514;DHT22;24282;48.400;10.808;2023-11-19T05:38:59;9.00;92.80
38514;DHT22;24282;48.400;10.808;2023-11-19T05:41:24;9.00;92.90
38514;DHT22;24282;48.400;10.808;2023-11-19T05:43:50;9.10;92.60
38514;DHT22;24282;48.400;10.808;2023-11-19T05:46:17;9.00;92.60
38514;DHT22;24282;48.400;10.808;2023-11-19T05:48:42;9.00;92.70
38514;DHT22;24282;48.400;10.808;2023-11-19T05:51:08;9.00;92.70
38514;DHT22;24282;48.400;10.808;2023-11-19T05:53:34;9.10;92.60
38514;DHT22;24282;48.400;10.808;2023-11-19T05:56:00;9.10;92.50
38514;DHT22;24282;48.400;10.808;2023-11-19T05:58:29;9.10;92.40
38514;DHT22;24282;48.400;10.808;2023-11-19T06:00:58;9.10;92.40
38514;DHT22;24282;48.400;10.808;2023-11-19T06:03:26;9.00;92.30
38514;DHT22;24282;48.400;10.808;2023-11-19T06:05:52;9.00;92.40
38514;DHT22;24282;48.400;10.808;2023-11-19T06:08:18;9.00;92.50
38514;DHT22;24282;48.400;10.808;2023-11-19T06:10:46;9.10;92.50
38514;DHT22;24282;48.400;10.808;2023-11-19T06:13:13;9.10;92.40
38514;DHT22;24282;48.400;10.808;2023-11-19T06:15:41;9.10;92.50
38514;DHT22;24282;48.400;10.808;2023-11-19T06:18:07;9.10;92.30
38514;DHT22;24282;48.400;10.808;2023-11-19T06:20:33;9.20;92.30
38514;DHT22;24282;48.400;10.808;2023-11-19T06:23:00;9.20;92.20
38514;DHT22;24282;48.400;10.808;2023-11-19T06:25:25;9.10;92.10
38514;DHT22;24282;48.400;10.808;2023-11-19T06:27:52;9.10;92.30
38514;DHT22;24282;48.400;10.808;2023-11-19T06:30:18;9.10;92.40
38514;DHT22;24282;48.400;10.808;2023-11-19T06:32:44;9.10;92.50
38514;DHT22;24282;48.400;10.808;2023-11-19T06:35:10;9.10;92.60
38514;DHT22;24282;48.400;10.808;2023-11-19T06:37:38;9.30;92.60
38514;DHT22;24282;48.400;10.808;2023-11-19T06:40:04;9.20;92.30
38514;DHT22;24282;48.400;10.808;2023-11-19T06:42:31;9.20;92.30
38514;DHT22;24282;48.400;10.808;2023-11-19T06:44:56;9.10;92.50
38514;DHT22;24282;48.400;10.808;2023-11-19T06:47:28;9.10;92.60
38514;DHT22;24282;48.400;10.808;2023-11-19T06:49:54;9.20;92.60
38514;DHT22;24282;48.400;10.808;2023-11-19T06:52:20;9.30;92.50
38514;DHT22;24282;48.400;10.808;2023-11-19T06:54:47;9.30;92.40
38514;DHT22;24282;48.400;10.808;2023-11-19T06:57:12;9.30;92.40
38514;DHT22;24282;48.400;10.808;2023-11-19T06:59:38;9.30;92.50
38514;DHT22;24282;48.400;10.808;2023-11-19T07:02:05;9.30;92.30
38514;DHT22;24282;48.400;10.808;2023-11-19T07:04:31;9.40;92.40
38514;DHT22;24282;48.400;10.808;2023-11-19T07:06:57;9.40;92.30
38514;DHT22;24282;48.400;10.808;2023-11-19T07:09:22;9.40;92.50
38514;DHT22;24282;48.400;10.808;2023-11-19T07:11:49;9.40;92.30
38514;DHT22;24282;48.400;10.808;2023-11-19T07:14:17;9.30;92.40
38514;DHT22;24282;48.400;10.808;2023-11-19T07:16:44;9.40;92.70
38514;DHT22;24282;48.400;10.808;2023-11-19T07:19:10;9.40;92.50
38514;DHT22;24282;48.400;10.808;2023-11-19T07:21:35;9.40;92.60
38514;DHT22;24282;48.400;10.808;2023-11-19T07:24:05;9.50;92.60
38514;DHT22;24282;48.400;10.808;2023-11-19T07:26:31;9.50;92.50
38514;DHT22;24282;48.400;10.808;2023-11-19T07:28:57;9.50;92.60
38514;DHT22;24282;48.400;10.808;2023-11-19T07:31:23;9.50;92.50
38514;DHT22;24282;48.400;10.808;2023-11-19T07:33:49;9.50;92.60
38514;DHT22;24282;48.400;10.808;2023-11-19T07:36:15;9.40;92.60
38514;DHT22;24282;48.400;10.808;2023-11-19T07:38:41;9.40;92.70
38514;DHT22;24282;48.400;10.808;2023-11-19T07:41:08;9.50;92.80
38514;DHT22;24282;48.400;10.808;2023-11-19T07:43:39;9.50;93.00
38514;DHT22;24282;48.400;10.808;2023-11-19T07:46:11;9.50;92.90
38514;DHT22;24282;48.400;10.808;2023-11-19T07:48:39;9.60;92.80
38514;DHT22;24282;48.400;10.808;2023-11-19T07:51:05;9.70;92.90
38514;DHT22;24282;48.400;10.808;2023-11-19T07:53:31;9.70;92.80
38514;DHT22;24282;48.400;10.808;2023-11-19T07:55:58;9.70;92.90
38514;DHT22;24282;48.400;10.808;2023-11-19T07:58:25;9.70;92.90
38514;DHT22;24282;48.400;10.808;2023-11-19T08:00:51;9.70;92.90
38514;DHT22;24282;48.400;10.808;2023-11-19T08:03:17;9.80;92.90
38514;DHT22;24282;48.400;10.808;2023-11-19T08:05:45;9.90;92.80
38514;DHT22;24282;48.400;10.808;2023-11-19T08:08:11;9.80;92.80
38514;DHT22;24282;48.400;10.808;2023-11-19T08:10:37;9.80;92.90
38514;DHT22;24282;48.400;10.808;2023-11-19T08:13:03;9.90;93.00
38514;DHT22;24282;48.400;10.808;2023-11-19T08:15:29;9.90;93.00
38514;DHT22;24282;48.400;10.808;2023-11-19T08:17:55;9.90;92.90
38514;DHT22;24282;48.400;10.808;2023-11-19T08:20:22;9.90;92.90
38514;DHT22;24282;48.400;10.808;2023-11-19T08:22:47;10.00;92.90
38514;DHT22;24282;48.400;10.808;2023-11-19T08:25:13;10.00;92.90
38514;DHT22;24282;48.400;10.808;2023-11-19T08:27:39;10.00;92.70
38514;DHT22;24282;48.400;10.808;2023-11-19T08:30:05;10.00;92.70
38514;DHT22;24282;48.400;10.808;2023-11-19T08:32:34;10.00;92.70
38514;DHT22;24282;48.400;10.808;2023-11-19T08:35:01;10.00;92.70
38514;DHT22;24282;48.400;10.808;2023-11-19T08:37:26;10.10;92.70
38514;DHT22;24282;48.400;10.808;2023-11-19T08:39:52;10.10;92.70
38514;DHT22;24282;48.400;10.808;2023-11-19T08:42:18;10.10;92.70
38514;DHT22;24282;48.400;10.808;2023-11-19T08:44:49;10.30;92.40
38514;DHT22;24282;48.400;10.808;2023-11-19T08:47:16;10.30;92.20
38514;DHT22;24282;48.400;10.808;2023-11-19T08:49:44;10.30;92.20
38514;DHT22;24282;48.400;10.808;2023-11-19T08:52:10;10.30;92.30
38514;DHT22;24282;48.400;10.808;2023-11-19T08:54:42;10.30;92.30
38514;DHT22;24282;48.400;10.808;2023-11-19T08:57:08;10.40;92.30
38514;DHT22;24282;48.400;10.808;2023-11-19T08:59:34;10.40;92.20
38514;DHT22;24282;48.400;10.808;2023-11-19T09:02:00;10.50;92.20
38514;DHT22;24282;48.400;10.808;2023-11-19T09:04:26;10.50;92.30
38514;DHT22;24282;48.400;10.808;2023-11-19T09:06:51;10.50;92.30
38514;DHT22;24282;48.400;10.808;2023-11-19T09:09:17;10.50;92.30
38514;DHT22;24282;48.400;10.808;2023-11-19T09:11:43;10.60;92.40
38514;DHT22;24282;48.400;10.808;2023-11-19T09:14:09;10.60;92.30
38514;DHT22;24282;48.400;10.808;2023-11-19T09:16:34;10.60;92.50
38514;DHT22;24282;48.400;10.808;2023-11-19T09:19:00;10.60;92.60
38514;DHT22;24282;48.400;10.808;2023-11-19T09:21:28;10.70;92.70
38514;DHT22;24282;48.400;10.808;2023-11-19T09:23:55;10.70;92.70
38514;DHT22;24282;48.400;10.808;2023-11-19T09:26:21;10.80;92.80
38514;DHT22;24282;48.400;10.808;2023-11-19T09:28:47;10.80;92.90
38514;DHT22;24282;48.400;10.808;2023-11-19T09:31:16;10.90;92.70
38514;DHT22;24282;48.400;10.808;2023-11-19T09:33:43;10.90;92.60
38514;DHT22;24282;48.400;10.808;2023-11-19T09:36:09;10.90;92.70
38514;DHT22;24282;48.400;10.808;2023-11-19T09:38:36;11.00;92.70
38514;DHT22;24282;48.400;10.808;2023-11-19T09:41:05;11.00;92.60
38514;DHT22;24282;48.400;10.808;2023-11-19T09:43:35;11.00;92.60
38514;DHT22;24282;48.400;10.808;2023-11-19T09:46:09;11.10;92.80
38514;DHT22;24282;48.400;10.808;2023-11-19T09:48:39;11.20;92.80
38514;DHT22;24282;48.400;10.808;2023-11-19T09:51:11;11.30;92.70
38514;DHT22;24282;48.400;10.808;2023-11-19T09:53:38;11.40;92.30
38514;DHT22;24282;48.400;10.808;2023-11-19T09:56:04;11.40;91.80
38514;DHT22;24282;48.400;10.808;2023-11-19T09:58:32;11.40;91.90
38514;DHT22;24282;48.400;10.808;2023-11-19T10:00:59;11.50;92.10
38514;DHT22;24282;48.400;10.808;2023-11-19T10:03:26;11.60;91.90
38514;DHT22;24282;48.400;10.808;2023-11-19T10:05:56;11.60;91.90
38514;DHT22;24282;48.400;10.808;2023-11-19T10:08:22;11.70;91.40
38514;DHT22;24282;48.400;10.808;2023-11-19T10:10:48;11.70;91.20
38514;DHT22;24282;48.400;10.808;2023-11-19T10:13:14;11.90;90.80
38514;DHT22;24282;48.400;10.808;2023-11-19T10:15:40;11.90;90.80
38514;DHT22;24282;48.400;10.808;2023-11-19T10:18:07;11.90;91.30
38514;DHT22;24282;48.400;10.808;2023-11-19T10:20:41;12.00;91.00
38514;DHT22;24282;48.400;10.808;2023-11-19T10:23:07;12.00;90.80
38514;DHT22;24282;48.400;10.808;2023-11-19T10:25:33;12.20;90.60
38514;DHT22;24282;48.400;10.808;2023-11-19T10:28:00;12.30;90.30
38514;DHT22;24282;48.400;10.808;2023-11-19T10:30:29;12.30;89.30
38514;DHT22;24282;48.400;10.808;2023-11-19T10:35:50;12.30;89.10
38514;DHT22;24282;48.400;10.808;2023-11-19T10:38:19;12.30;89.10
38514;DHT22;24282;48.400;10.808;2023-11-19T10:40:45;12.30;88.90
38514;DHT22;24282;48.400;10.808;2023-11-19T10:43:11;12.30;89.20
38514;DHT22;24282;48.400;10.808;2023-11-19T10:45:38;12.20;89.30
38514;DHT22;24282;48.400;10.808;2023-11-19T10:48:04;12.30;88.80
38514;DHT22;24282;48.400;10.808;2023-11-19T10:50:34;12.40;89.00
38514;DHT22;24282;48.400;10.808;2023-11-19T10:53:00;12.30;89.20
38514;DHT22;24282;48.400;10.808;2023-11-19T10:55:28;12.20;89.50
38514;DHT22;24282;48.400;10.808;2023-11-19T10:58:02;12.40;89.60
38514;DHT22;24282;48.400;10.808;2023-11-19T11:00:29;12.40;88.90
38514;DHT22;24282;48.400;10.808;2023-11-19T11:03:03;12.50;88.70
38514;DHT22;24282;48.400;10.808;2023-11-19T11:05:32;12.40;88.70
38514;DHT22;24282;48.400;10.808;2023-11-19T11:08:00;12.50;88.20
38514;DHT22;24282;48.400;10.808;2023-11-19T11:10:28;12.40;88.50
38514;DHT22;24282;48.400;10.808;2023-11-19T11:12:59;12.40;88.50
38514;DHT22;24282;48.400;10.808;2023-11-19T11:15:29;12.50;88.50
38514;DHT22;24282;48.400;10.808;2023-11-19T11:18:00;12.50;88.80
38514;DHT22;24282;48.400;10.808;2023-11-19T11:20:29;12.50;88.50
38514;DHT22;24282;48.400;10.808;2023-11-19T11:23:45;12.50;88.70
38514;DHT22;24282;48.400;10.808;2023-11-19T11:28:52;12.60;88.40
38514;DHT22;24282;48.400;10.808;2023-11-19T11:37:29;12.60;88.00
38514;DHT22;24282;48.400;10.808;2023-11-19T11:39:57;12.70;87.70
38514;DHT22;24282;48.400;10.808;2023-11-19T11:50:11;12.60;88.80
38514;DHT22;24282;48.400;10.808;2023-11-19T11:55:27;12.80;88.20
38514;DHT22;24282;48.400;10.808;2023-11-19T11:57:56;12.80;87.90
38514;DHT22;24282;48.400;10.808;2023-11-19T12:00:39;12.80;88.00
38514;DHT22;24282;48.400;10.808;2023-11-19T12:03:07;12.90;87.80
38514;DHT22;24282;48.400;10.808;2023-11-19T12:05:34;13.00;87.20
38514;DHT22;24282;48.400;10.808;2023-11-19T12:08:04;13.10;86.10
38514;DHT22;24282;48.400;10.808;2023-11-19T12:10:46;13.30;86.40
38514;DHT22;24282;48.400;10.808;2023-11-19T12:13:16;13.30;85.50
38514;DHT22;24282;48.400;10.808;2023-11-19T12:18:29;13.30;85.00
38514;DHT22;24282;48.400;10.808;2023-11-19T12:20:56;13.30;84.90
38514;DHT22;24282;48.400;10.808;2023-11-19T12:23:34;13.20;85.50
38514;DHT22;24282;48.400;10.808;2023-11-19T12:26:00;13.20;85.60
38514;DHT22;24282;48.400;10.808;2023-11-19T12:28:25;13.30;85.70
38514;DHT22;24282;48.400;10.808;2023-11-19T12:31:07;13.30;85.20
38514;DHT22;24282;48.400;10.808;2023-11-19T12:33:35;13.20;85.90
38514;DHT22;24282;48.400;10.808;2023-11-19T12:36:01;13.20;85.80
38514;DHT22;24282;48.400;10.808;2023-11-19T12:38:30;13.10;85.40
38514;DHT22;24282;48.400;10.808;2023-11-19T12:41:07;13.10;86.40
38514;DHT22;24282;48.400;10.808;2023-11-19T12:43:33;13.10;86.20
38514;DHT22;24282;48.400;10.808;2023-11-19T12:46:00;13.10;86.00
38514;DHT22;24282;48.400;10.808;2023-11-19T12:48:26;13.00;86.30
38514;DHT22;24282;48.400;10.808;2023-11-19T12:53:19;13.10;86.10
38514;DHT22;24282;48.400;10.808;2023-11-19T12:55:45;13.10;85.80
38514;DHT22;24282;48.400;10.808;2023-11-19T12:58:27;13.10;86.00
38514;DHT22;24282;48.400;10.808;2023-11-19T13:00:59;13.10;86.20
38514;DHT22;24282;48.400;10.808;2023-11-19T13:03:33;13.20;85.90
38514;DHT22;24282;48.400;10.808;2023-11-19T13:06:09;13.10;85.80
38514;DHT22;24282;48.400;10.808;2023-11-19T13:08:39;13.30;85.40
38514;DHT22;24282;48.400;10.808;2023-11-19T13:11:05;13.40;85.60
38514;DHT22;24282;48.400;10.808;2023-11-19T13:13:32;13.40;85.00
38514;DHT22;24282;48.400;10.808;2023-11-19T13:16:05;13.50;84.80
38514;DHT22;24282;48.400;10.808;2023-11-19T13:18:34;13.60;84.10
38514;DHT22;24282;48.400;10.808;2023-11-19T13:21:00;13.60;84.00
38514;DHT22;24282;48.400;10.808;2023-11-19T13:23:26;13.50;84.70
38514;DHT22;24282;48.400;10.808;2023-11-19T13:25:52;13.60;84.20
38514;DHT22;24282;48.400;10.808;2023-11-19T13:28:17;13.60;84.10
38514;DHT22;24282;48.400;10.808;2023-11-19T13:30:43;13.60;84.40
38514;DHT22;24282;48.400;10.808;2023-11-19T13:33:09;13.60;84.20
38514;DHT22;24282;48.400;10.808;2023-11-19T13:35:38;13.50;84.80
38514;DHT22;24282;48.400;10.808;2023-11-19T13:38:06;13.50;84.40
38514;DHT22;24282;48.400;10.808;2023-11-19T13:40:34;13.50;84.40
38514;DHT22;24282;48.400;10.808;2023-11-19T13:43:00;13.50;84.50
38514;DHT22;24282;48.400;10.808;2023-11-19T13:45:26;13.40;84.80
38514;DHT22;24282;48.400;10.808;2023-11-19T13:47:51;13.30;85.00
38514;DHT22;24282;48.400;10.808;2023-11-19T13:50:17;13.30;85.40
38514;DHT22;24282;48.400;10.808;2023-11-19T13:52:44;13.30;85.40
38514;DHT22;24282;48.400;10.808;2023-11-19T13:55:12;13.30;85.50
38514;DHT22;24282;48.400;10.808;2023-11-19T13:57:39;13.40;85.50
38514;DHT22;24282;48.400;10.808;2023-11-19T14:00:09;13.40;85.50
38514;DHT22;24282;48.400;10.808;2023-11-19T14:02:42;13.40;85.00
38514;DHT22;24282;48.400;10.808;2023-11-19T14:05:12;13.40;85.40
38514;DHT22;24282;48.400;10.808;2023-11-19T14:07:41;13.40;85.50
38514;DHT22;24282;48.400;10.808;2023-11-19T14:10:07;13.40;85.40
38514;DHT22;24282;48.400;10.808;2023-11-19T14:12:37;13.30;85.60
38514;DHT22;24282;48.400;10.808;2023-11-19T14:15:04;13.40;85.60
38514;DHT22;24282;48.400;10.808;2023-11-19T14:17:32;13.40;85.20
38514;DHT22;24282;48.400;10.808;2023-11-19T14:19:58;13.20;85.40
38514;DHT22;24282;48.400;10.808;2023-11-19T14:22:23;13.30;85.20
38514;DHT22;24282;48.400;10.808;2023-11-19T14:24:50;13.30;85.00
38514;DHT22;24282;48.400;10.808;2023-11-19T14:27:16;13.30;85.40
38514;DHT22;24282;48.400;10.808;2023-11-19T14:29:43;13.20;85.50
38514;DHT22;24282;48.400;10.808;2023-11-19T14:32:11;13.20;85.60
38514;DHT22;24282;48.400;10.808;2023-11-19T14:34:36;13.10;85.80
38514;DHT22;24282;48.400;10.808;2023-11-19T14:37:02;13.00;85.90
38514;DHT22;24282;48.400;10.808;2023-11-19T14:39:28;13.10;85.60
38514;DHT22;24282;48.400;10.808;2023-11-19T14:41:57;13.10;85.40
38514;DHT22;24282;48.400;10.808;2023-11-19T14:44:27;13.10;85.20
38514;DHT22;24282;48.400;10.808;2023-11-19T14:46:53;13.10;85.50
38514;DHT22;24282;48.400;10.808;2023-11-19T14:49:18;13.00;85.60
38514;DHT22;24282;48.400;10.808;2023-11-19T14:51:44;13.10;85.40
38514;DHT22;24282;48.400;10.808;2023-11-19T14:54:10;13.00;85.40
38514;DHT22;24282;48.400;10.808;2023-11-19T14:56:35;13.00;85.60
38514;DHT22;24282;48.400;10.808;2023-11-19T14:59:01;13.00;85.60
38514;DHT22;24282;48.400;10.808;2023-11-19T15:01:27;13.00;85.50
38514;DHT22;24282;48.400;10.808;2023-11-19T15:03:54;12.90;85.70
38514;DHT22;24282;48.400;10.808;2023-11-19T15:06:23;12.90;85.50
38514;DHT22;24282;48.400;10.808;2023-11-19T15:08:50;12.90;85.50
38514;DHT22;24282;48.400;10.808;2023-11-19T15:11:15;12.90;85.40
38514;DHT22;24282;48.400;10.808;2023-11-19T15:13:41;12.90;85.30
38514;DHT22;24282;48.400;10.808;2023-11-19T15:16:07;12.90;85.10
38514;DHT22;24282;48.400;10.808;2023-11-19T15:18:37;12.80;84.90
38514;DHT22;24282;48.400;10.808;2023-11-19T15:21:03;12.90;84.60
38514;DHT22;24282;48.400;10.808;2023-11-19T15:23:29;12.90;84.40
38514;DHT22;24282;48.400;10.808;2023-11-19T15:25:55;12.90;84.40
38514;DHT22;24282;48.400;10.808;2023-11-19T15:28:21;12.80;84.80
38514;DHT22;24282;48.400;10.808;2023-11-19T15:30:47;12.80;84.70
38514;DHT22;24282;48.400;10.808;2023-11-19T15:33:13;12.70;84.70
38514;DHT22;24282;48.400;10.808;2023-11-19T15:35:38;12.70;85.00
38514;DHT22;24282;48.400;10.808;2023-11-19T15:38:05;12.70;84.90
38514;DHT22;24282;48.400;10.808;2023-11-19T15:40:34;12.70;84.80
38514;DHT22;24282;48.400;10.808;2023-11-19T15:42:59;12.60;85.20
38514;DHT22;24282;48.400;10.808;2023-11-19T15:45:26;12.60;85.20
38514;DHT22;24282;48.400;10.808;2023-11-19T15:47:52;12.50;85.40
38514;DHT22;24282;48.400;10.808;2023-11-19T15:50:18;12.40;85.70
38514;DHT22;24282;48.400;10.808;2023-11-19T15:52:43;12.40;85.70